sensor_id;sensor_type;location;lat;lon;timestamp;pressure;altitude;pressure_sealevel;temperature;humidity
42511;BME280;28141;51.120;17.114;2023-02-26T00:00:11;100696.20;;;23.32;30.55
42511;BME280;28141;51.120;17.114;2023-02-26T00:03:54;100693.44;;;23.32;30.51
42511;BME280;28141;51.120;17.114;2023-02-26T00:07:08;100699.06;;;23.25;30.23
42511;BME280;28141;51.120;17.114;2023-02-26T00:10:22;100694.44;;;23.19;30.32
42511;BME280;28141;51.120;17.114;2023-02-26T00:13:38;100703.96;;;23.23;30.71
42511;BME280;28141;51.120;17.114;2023-02-26T00:17:26;100706.19;;;23.33;30.48
42511;BME280;28141;51.120;17.114;2023-02-26T00:20:43;100699.88;;;23.25;30.54
42511;BME280;28141;51.120;17.114;2023-02-26T00:23:58;100710.56;;;23.22;30.38
42511;BME280;28141;51.120;17.114;2023-02-26T00:27:39;100717.30;;;23.26;30.48
42511;BME280;28141;51.120;17.114;2023-02-26T00:30:54;100711.19;;;23.24;30.67
42511;BME280;28141;51.120;17.114;2023-02-26T00:34:11;100714.70;;;23.31;30.46
42511;BME280;28141;51.120;17.114;2023-02-26T00:41:16;100723.84;;;23.13;30.51
42511;BME280;28141;51.120;17.114;2023-02-26T00:44:31;100720.38;;;23.18;30.69
42511;BME280;28141;51.120;17.114;2023-02-26T00:48:12;100724.60;;;23.20;30.57
42511;BME280;28141;51.120;17.114;2023-02-26T00:51:48;100728.53;;;23.13;30.51
42511;BME280;28141;51.120;17.114;2023-02-26T00:55:05;100740.11;;;23.21;30.51
42511;BME280;28141;51.120;17.114;2023-02-26T00:58:19;100734.05;;;23.31;30.40
42511;BME280;28141;51.120;17.114;2023-02-26T01:01:57;100729.59;;;23.30;30.29
42511;BME280;28141;51.120;17.114;2023-02-26T01:05:12;100733.57;;;23.16;30.32
42511;BME280;28141;51.120;17.114;2023-02-26T01:08:33;100727.77;;;23.24;30.52
42511;BME280;28141;51.120;17.114;2023-02-26T01:12:15;100741.20;;;23.20;30.35
42511;BME280;28141;51.120;17.114;2023-02-26T01:15:30;100747.34;;;23.22;30.11
42511;BME280;28141;51.120;17.114;2023-02-26T01:18:49;100748.72;;;23.32;30.40
42511;BME280;28141;51.120;17.114;2023-02-26T01:22:38;100758.62;;;23.21;30.26
42511;BME280;28141;51.120;17.114;2023-02-26T01:25:59;100772.04;;;23.17;30.09
42511;BME280;28141;51.120;17.114;2023-02-26T01:29:17;100766.37;;;23.12;30.47
42511;BME280;28141;51.120;17.114;2023-02-26T01:36:24;100773.41;;;23.08;30.35
42511;BME280;28141;51.120;17.114;2023-02-26T01:47:14;100786.37;;;23.08;30.50
42511;BME280;28141;51.120;17.114;2023-02-26T01:50:54;100794.84;;;23.13;30.55
42511;BME280;28141;51.120;17.114;2023-02-26T01:54:07;100794.76;;;23.19;30.70
42511;BME280;28141;51.120;17.114;2023-02-26T01:57:22;100804.52;;;23.22;30.37
42511;BME280;28141;51.120;17.114;2023-02-26T02:00:36;100804.07;;;23.25;30.30
42511;BME280;28141;51.120;17.114;2023-02-26T02:04:15;100810.50;;;23.19;30.33
42511;BME280;28141;51.120;17.114;2023-02-26T02:07:29;100805.82;;;23.19;30.48
42511;BME280;28141;51.120;17.114;2023-02-26T02:10:45;100814.73;;;23.21;30.57
42511;BME280;28141;51.120;17.114;2023-02-26T02:14:11;100816.87;;;23.19;30.48
42511;BME280;28141;51.120;17.114;2023-02-26T02:32:10;100847.93;;;23.15;30.35
42511;BME280;28141;51.120;17.114;2023-02-26T02:35:54;100853.23;;;23.16;30.41
42511;BME280;28141;51.120;17.114;2023-02-26T02:39:13;100855.73;;;23.24;30.38
42511;BME280;28141;51.120;17.114;2023-02-26T02:42:37;100860.34;;;23.30;30.32
42511;BME280;28141;51.120;17.114;2023-02-26T02:46:23;100871.47;;;23.24;30.21
42511;BME280;28141;51.120;17.114;2023-02-26T02:49:48;100872.55;;;23.23;30.19
42511;BME280;28141;51.120;17.114;2023-02-26T02:53:16;100867.90;;;23.17;30.36
42511;BME280;28141;51.120;17.114;2023-02-26T02:57:02;100879.43;;;23.14;30.31
42511;BME280;28141;51.120;17.114;2023-02-26T03:00:20;100881.05;;;23.21;30.25
42511;BME280;28141;51.120;17.114;2023-02-26T03:07:23;100887.43;;;23.22;30.14
42511;BME280;28141;51.120;17.114;2023-02-26T03:10:37;100899.55;;;23.21;30.23
42511;BME280;28141;51.120;17.114;2023-02-26T03:13:52;100906.55;;;23.23;29.97
42511;BME280;28141;51.120;17.114;2023-02-26T03:31:51;100939.38;;;23.13;30.28
42511;BME280;28141;51.120;17.114;2023-02-26T03:39:03;100953.41;;;23.12;30.28
42511;BME280;28141;51.120;17.114;2023-02-26T03:45:50;100962.33;;;23.14;30.07
42511;BME280;28141;51.120;17.114;2023-02-26T03:49:40;100980.82;;;23.13;30.20
42511;BME280;28141;51.120;17.114;2023-02-26T03:52:57;100982.73;;;23.13;30.50
42511;BME280;28141;51.120;17.114;2023-02-26T03:56:20;100975.23;;;23.20;30.22
42511;BME280;28141;51.120;17.114;2023-02-26T03:59:58;100990.53;;;23.22;30.04
42511;BME280;28141;51.120;17.114;2023-02-26T04:03:24;100986.08;;;23.21;30.27
42511;BME280;28141;51.120;17.114;2023-02-26T04:06:40;100991.54;;;23.28;29.68
42511;BME280;28141;51.120;17.114;2023-02-26T04:10:24;100991.95;;;23.32;29.86
42511;BME280;28141;51.120;17.114;2023-02-26T04:13:39;101001.74;;;23.27;29.69
42511;BME280;28141;51.120;17.114;2023-02-26T04:16:53;101009.68;;;23.17;30.18
42511;BME280;28141;51.120;17.114;2023-02-26T04:20:08;101008.18;;;23.21;30.27
42511;BME280;28141;51.120;17.114;2023-02-26T04:23:48;101017.54;;;23.20;30.00
42511;BME280;28141;51.120;17.114;2023-02-26T04:27:03;101021.78;;;23.23;29.85
42511;BME280;28141;51.120;17.114;2023-02-26T04:30:17;101013.93;;;23.20;29.89
42511;BME280;28141;51.120;17.114;2023-02-26T04:33:31;101020.74;;;23.17;29.91
42511;BME280;28141;51.120;17.114;2023-02-26T04:37:10;101024.98;;;23.20;29.89
42511;BME280;28141;51.120;17.114;2023-02-26T04:40:24;101020.74;;;23.17;29.70
42511;BME280;28141;51.120;17.114;2023-02-26T04:43:39;101035.19;;;23.19;30.05
42511;BME280;28141;51.120;17.114;2023-02-26T04:46:53;101031.62;;;23.12;29.79
42511;BME280;28141;51.120;17.114;2023-02-26T04:50:31;101043.32;;;23.14;30.00
42511;BME280;28141;51.120;17.114;2023-02-26T04:53:45;101045.61;;;23.17;29.80
42511;BME280;28141;51.120;17.114;2023-02-26T04:56:59;101046.45;;;23.18;29.97
42511;BME280;28141;51.120;17.114;2023-02-26T05:00:14;101048.64;;;23.09;29.80
42511;BME280;28141;51.120;17.114;2023-02-26T05:03:54;101059.27;;;23.12;29.90
42511;BME280;28141;51.120;17.114;2023-02-26T05:07:08;101059.70;;;23.09;30.08
42511;BME280;28141;51.120;17.114;2023-02-26T05:10:23;101059.27;;;23.12;29.83
42511;BME280;28141;51.120;17.114;2023-02-26T05:13:37;101064.37;;;23.09;29.94
42511;BME280;28141;51.120;17.114;2023-02-26T05:17:15;101062.26;;;23.04;29.94
42511;BME280;28141;51.120;17.114;2023-02-26T05:20:29;101063.36;;;23.03;29.90
42511;BME280;28141;51.120;17.114;2023-02-26T05:23:43;101068.63;;;23.05;30.03
42511;BME280;28141;51.120;17.114;2023-02-26T05:26:57;101073.71;;;23.14;29.69
42511;BME280;28141;51.120;17.114;2023-02-26T05:30:35;101081.32;;;23.19;29.71
42511;BME280;28141;51.120;17.114;2023-02-26T05:33:49;101092.38;;;23.19;29.76
42511;BME280;28141;51.120;17.114;2023-02-26T05:37:03;101093.22;;;23.19;29.60
42511;BME280;28141;51.120;17.114;2023-02-26T05:40:17;101096.67;;;23.08;29.93
42511;BME280;28141;51.120;17.114;2023-02-26T05:44:37;101107.95;;;23.07;29.98
42511;BME280;28141;51.120;17.114;2023-02-26T05:47:51;101112.41;;;23.14;29.68
42511;BME280;28141;51.120;17.114;2023-02-26T05:51:05;101117.94;;;23.08;29.82
42511;BME280;28141;51.120;17.114;2023-02-26T05:54:19;101129.25;;;23.00;29.78
42511;BME280;28141;51.120;17.114;2023-02-26T05:57:57;101142.38;;;23.04;29.85
42511;BME280;28141;51.120;17.114;2023-02-26T06:01:12;101141.95;;;23.07;29.39
42511;BME280;28141;51.120;17.114;2023-02-26T06:04:26;101140.84;;;23.15;30.03
42511;BME280;28141;51.120;17.114;2023-02-26T06:07:40;101151.09;;;23.14;29.81
42511;BME280;28141;51.120;17.114;2023-02-26T06:11:19;101165.59;;;23.03;29.79
42511;BME280;28141;51.120;17.114;2023-02-26T06:14:34;101163.63;;;23.10;29.79
42511;BME280;28141;51.120;17.114;2023-02-26T06:17:48;101172.73;;;23.17;30.16
42511;BME280;28141;51.120;17.114;2023-02-26T06:21:03;101180.82;;;23.19;29.53
42511;BME280;28141;51.120;17.114;2023-02-26T06:24:41;101198.24;;;23.19;29.68
42511;BME280;28141;51.120;17.114;2023-02-26T06:27:55;101190.59;;;23.15;29.64
42511;BME280;28141;51.120;17.114;2023-02-26T06:31:09;101201.21;;;23.24;29.34
42511;BME280;28141;51.120;17.114;2023-02-26T06:34:23;101205.44;;;23.27;29.67
42511;BME280;28141;51.120;17.114;2023-02-26T06:38:01;101211.38;;;23.30;29.54
42511;BME280;28141;51.120;17.114;2023-02-26T06:41:15;101215.63;;;23.33;29.42
42511;BME280;28141;51.120;17.114;2023-02-26T06:44:29;101215.59;;;23.40;29.05
42511;BME280;28141;51.120;17.114;2023-02-26T06:47:43;101228.77;;;23.38;29.71
42511;BME280;28141;51.120;17.114;2023-02-26T06:51:22;101236.02;;;23.39;29.35
42511;BME280;28141;51.120;17.114;2023-02-26T06:54:35;101234.30;;;23.38;29.19
42511;BME280;28141;51.120;17.114;2023-02-26T06:57:49;101234.30;;;23.44;29.17
42511;BME280;28141;51.120;17.114;2023-02-26T07:01:04;101240.22;;;23.48;29.59
42511;BME280;28141;51.120;17.114;2023-02-26T07:04:42;101244.89;;;23.47;29.22
42511;BME280;28141;51.120;17.114;2023-02-26T07:07:56;101251.69;;;23.58;29.26
42511;BME280;28141;51.120;17.114;2023-02-26T07:11:10;101262.75;;;23.58;28.89
42511;BME280;28141;51.120;17.114;2023-02-26T07:14:24;101255.93;;;23.67;28.88
42511;BME280;28141;51.120;17.114;2023-02-26T07:18:06;101274.02;;;23.63;29.03
42511;BME280;28141;51.120;17.114;2023-02-26T07:21:20;101275.09;;;23.62;28.96
42511;BME280;28141;51.120;17.114;2023-02-26T07:24:34;101277.59;;;23.70;29.06
42511;BME280;28141;51.120;17.114;2023-02-26T07:27:47;101292.73;;;23.68;28.86
42511;BME280;28141;51.120;17.114;2023-02-26T07:31:26;101293.97;;;23.72;29.00
42511;BME280;28141;51.120;17.114;2023-02-26T07:34:40;101302.73;;;23.69;29.06
42511;BME280;28141;51.120;17.114;2023-02-26T07:37:55;101312.70;;;23.70;28.98
42511;BME280;28141;51.120;17.114;2023-02-26T07:41:09;101315.25;;;23.71;28.98
42511;BME280;28141;51.120;17.114;2023-02-26T07:44:47;101321.16;;;23.81;28.90
42511;BME280;28141;51.120;17.114;2023-02-26T07:48:01;101326.10;;;23.79;28.96
42511;BME280;28141;51.120;17.114;2023-02-26T07:51:15;101318.61;;;23.80;28.85
42511;BME280;28141;51.120;17.114;2023-02-26T07:54:29;101325.63;;;23.82;28.79
42511;BME280;28141;51.120;17.114;2023-02-26T07:58:08;101337.76;;;23.88;28.78
42511;BME280;28141;51.120;17.114;2023-02-26T08:01:22;101337.12;;;23.86;28.69
42511;BME280;28141;51.120;17.114;2023-02-26T08:04:36;101351.59;;;23.88;28.84
42511;BME280;28141;51.120;17.114;2023-02-26T08:07:50;101352.83;;;23.92;28.66
42511;BME280;28141;51.120;17.114;2023-02-26T08:11:28;101367.34;;;23.87;28.76
42511;BME280;28141;51.120;17.114;2023-02-26T08:14:42;101367.13;;;23.89;28.59
42511;BME280;28141;51.120;17.114;2023-02-26T08:17:57;101371.80;;;23.88;28.80
42511;BME280;28141;51.120;17.114;2023-02-26T08:21:11;101373.51;;;23.89;28.76
42511;BME280;28141;51.120;17.114;2023-02-26T08:24:50;101378.79;;;23.97;28.68
42511;BME280;28141;51.120;17.114;2023-02-26T08:28:04;101376.66;;;23.99;28.54
42511;BME280;28141;51.120;17.114;2023-02-26T08:31:18;101387.73;;;23.99;28.51
42511;BME280;28141;51.120;17.114;2023-02-26T08:34:32;101388.58;;;24.00;28.57
42511;BME280;28141;51.120;17.114;2023-02-26T08:38:12;101403.87;;;24.02;28.61
42511;BME280;28141;51.120;17.114;2023-02-26T08:41:26;101389.16;;;24.09;28.59
42511;BME280;28141;51.120;17.114;2023-02-26T08:44:44;101397.04;;;24.12;28.75
42511;BME280;28141;51.120;17.114;2023-02-26T08:47:58;101417.91;;;24.08;28.28
42511;BME280;28141;51.120;17.114;2023-02-26T08:51:36;101418.59;;;23.96;28.53
42511;BME280;28141;51.120;17.114;2023-02-26T08:54:51;101427.75;;;23.97;28.54
42511;BME280;28141;51.120;17.114;2023-02-26T08:58:05;101426.21;;;24.08;28.45
42511;BME280;28141;51.120;17.114;2023-02-26T09:01:20;101435.55;;;24.13;28.67
42511;BME280;28141;51.120;17.114;2023-02-26T09:04:59;101441.50;;;24.23;28.48
42511;BME280;28141;51.120;17.114;2023-02-26T09:08:13;101440.86;;;24.21;28.47
42511;BME280;28141;51.120;17.114;2023-02-26T09:11:28;101443.63;;;24.15;28.29
42511;BME280;28141;51.120;17.114;2023-02-26T09:14:44;101460.03;;;24.23;28.28
42511;BME280;28141;51.120;17.114;2023-02-26T09:18:23;101465.99;;;24.26;28.41
42511;BME280;28141;51.120;17.114;2023-02-26T09:21:37;101465.56;;;24.23;28.47
42511;BME280;28141;51.120;17.114;2023-02-26T09:24:51;101474.08;;;24.28;28.09
42511;BME280;28141;51.120;17.114;2023-02-26T09:28:05;101482.59;;;24.26;28.38
42511;BME280;28141;51.120;17.114;2023-02-26T09:31:44;101483.45;;;24.27;28.24
42511;BME280;28141;51.120;17.114;2023-02-26T09:34:58;101487.08;;;24.21;28.19
42511;BME280;28141;51.120;17.114;2023-02-26T09:38:12;101493.67;;;24.33;28.19
42511;BME280;28141;51.120;17.114;2023-02-26T09:45:26;101501.73;;;24.34;28.25
42511;BME280;28141;51.120;17.114;2023-02-26T09:48:41;101504.50;;;24.34;28.17
42511;BME280;28141;51.120;17.114;2023-02-26T09:52:10;101517.06;;;24.37;28.15
42511;BME280;28141;51.120;17.114;2023-02-26T09:55:48;101522.17;;;24.40;28.11
42511;BME280;28141;51.120;17.114;2023-02-26T09:59:03;101526.60;;;24.54;28.19
42511;BME280;28141;51.120;17.114;2023-02-26T10:02:27;101531.46;;;24.59;28.18
42511;BME280;28141;51.120;17.114;2023-02-26T10:06:17;101538.74;;;24.53;28.00
42511;BME280;28141;51.120;17.114;2023-02-26T10:13:35;101555.79;;;24.50;28.10
42511;BME280;28141;51.120;17.114;2023-02-26T10:16:54;101552.77;;;24.58;27.95
42511;BME280;28141;51.120;17.114;2023-02-26T10:20:17;101549.57;;;24.61;28.09
42511;BME280;28141;51.120;17.114;2023-02-26T10:24:03;101561.92;;;24.65;27.92
42511;BME280;28141;51.120;17.114;2023-02-26T10:27:34;101564.01;;;24.77;27.92
42511;BME280;28141;51.120;17.114;2023-02-26T10:30:55;101567.59;;;24.77;27.37
42511;BME280;28141;51.120;17.114;2023-02-26T10:38:12;101570.24;;;24.65;27.95
42511;BME280;28141;51.120;17.114;2023-02-26T10:41:30;101576.34;;;24.81;27.87
42511;BME280;28141;51.120;17.114;2023-02-26T10:52:10;101586.77;;;24.85;27.95
42511;BME280;28141;51.120;17.114;2023-02-26T10:59:14;101601.20;;;25.07;27.34
42511;BME280;28141;51.120;17.114;2023-02-26T11:02:37;101593.88;;;25.19;27.16
42511;BME280;28141;51.120;17.114;2023-02-26T11:06:23;101599.42;;;25.19;27.39
42511;BME280;28141;51.120;17.114;2023-02-26T11:09:44;101596.53;;;25.32;27.32
42511;BME280;28141;51.120;17.114;2023-02-26T11:12:58;101595.88;;;25.37;27.00
42511;BME280;28141;51.120;17.114;2023-02-26T11:16:53;101593.68;;;25.45;27.08
42511;BME280;28141;51.120;17.114;2023-02-26T11:20:33;101600.49;;;25.50;27.06
42511;BME280;28141;51.120;17.114;2023-02-26T11:23:36;101605.22;;;25.42;27.28
42511;BME280;28141;51.120;17.114;2023-02-26T11:27:24;101607.69;;;25.57;26.99
42511;BME280;28141;51.120;17.114;2023-02-26T11:30:43;101614.72;;;25.60;26.86
42511;BME280;28141;51.120;17.114;2023-02-26T11:34:04;101614.09;;;25.58;26.83
42511;BME280;28141;51.120;17.114;2023-02-26T11:37:48;101615.44;;;25.49;26.92
42511;BME280;28141;51.120;17.114;2023-02-26T11:41:04;101624.20;;;25.45;26.76
42511;BME280;28141;51.120;17.114;2023-02-26T11:44:34;101625.69;;;25.48;27.18
42511;BME280;28141;51.120;17.114;2023-02-26T11:48:17;101636.00;;;25.34;27.06
42511;BME280;28141;51.120;17.114;2023-02-26T11:51:33;101636.41;;;25.38;27.03
42511;BME280;28141;51.120;17.114;2023-02-26T11:54:50;101639.61;;;25.41;27.09
42511;BME280;28141;51.120;17.114;2023-02-26T11:58:38;101648.37;;;25.38;27.11
42511;BME280;28141;51.120;17.114;2023-02-26T12:01:52;101650.23;;;25.44;27.21
42511;BME280;28141;51.120;17.114;2023-02-26T12:05:09;101654.08;;;25.43;26.97
42511;BME280;28141;51.120;17.114;2023-02-26T12:08:30;101660.89;;;25.48;27.24
42511;BME280;28141;51.120;17.114;2023-02-26T12:19:21;101665.72;;;25.21;27.34
42511;BME280;28141;51.120;17.114;2023-02-26T12:26:34;101665.44;;;25.35;27.35
42511;BME280;28141;51.120;17.114;2023-02-26T12:30:02;101662.62;;;25.42;27.37
42511;BME280;28141;51.120;17.114;2023-02-26T12:51:42;101701.76;;;25.27;27.12
42511;BME280;28141;51.120;17.114;2023-02-26T13:16:51;101709.95;;;25.60;27.32
42511;BME280;28141;51.120;17.114;2023-02-26T13:23:56;101706.85;;;26.06;26.85
42511;BME280;28141;51.120;17.114;2023-02-26T13:27:31;101705.28;;;26.42;26.55
42511;BME280;28141;51.120;17.114;2023-02-26T13:30:49;101717.67;;;26.64;26.15
42511;BME280;28141;51.120;17.114;2023-02-26T13:34:12;101706.57;;;26.82;26.03
42511;BME280;28141;51.120;17.114;2023-02-26T13:37:57;101719.51;;;26.95;25.79
42511;BME280;28141;51.120;17.114;2023-02-26T13:41:20;101736.14;;;27.02;25.62
42511;BME280;28141;51.120;17.114;2023-02-26T13:44:47;101761.84;;;26.97;25.89
42511;BME280;28141;51.120;17.114;2023-02-26T13:51:56;101753.51;;;26.72;25.88
42511;BME280;28141;51.120;17.114;2023-02-26T13:59:29;101756.95;;;26.49;26.17
42511;BME280;28141;51.120;17.114;2023-02-26T14:02:33;101755.28;;;26.42;26.45
42511;BME280;28141;51.120;17.114;2023-02-26T14:13:14;101754.95;;;26.32;26.81
42511;BME280;28141;51.120;17.114;2023-02-26T14:16:33;101755.48;;;26.47;26.42
42511;BME280;28141;51.120;17.114;2023-02-26T14:20:21;101764.36;;;26.56;26.24
42511;BME280;28141;51.120;17.114;2023-02-26T14:23:36;101766.29;;;26.55;26.11
42511;BME280;28141;51.120;17.114;2023-02-26T14:30:47;101778.43;;;26.36;26.27
42511;BME280;28141;51.120;17.114;2023-02-26T14:34:12;101779.13;;;26.25;26.41
42511;BME280;28141;51.120;17.114;2023-02-26T14:37:27;101781.71;;;26.19;26.83
42511;BME280;28141;51.120;17.114;2023-02-26T14:44:43;101789.60;;;25.91;26.76
42511;BME280;28141;51.120;17.114;2023-02-26T14:48:02;101783.38;;;25.96;27.00
42511;BME280;28141;51.120;17.114;2023-02-26T14:51:58;101793.72;;;25.82;26.91
42511;BME280;28141;51.120;17.114;2023-02-26T14:58:45;101800.83;;;25.65;27.03
42511;BME280;28141;51.120;17.114;2023-02-26T15:23:56;101831.09;;;25.08;27.68
42511;BME280;28141;51.120;17.114;2023-02-26T15:27:16;101822.50;;;25.23;27.33
42511;BME280;28141;51.120;17.114;2023-02-26T15:30:33;101832.96;;;25.28;27.17
42511;BME280;28141;51.120;17.114;2023-02-26T15:33:48;101839.36;;;25.28;27.51
42511;BME280;28141;51.120;17.114;2023-02-26T15:37:30;101848.11;;;25.25;27.53
42511;BME280;28141;51.120;17.114;2023-02-26T15:40:52;101844.05;;;25.21;27.38
42511;BME280;28141;51.120;17.114;2023-02-26T15:44:09;101855.35;;;25.26;27.13
42511;BME280;28141;51.120;17.114;2023-02-26T15:48:01;101857.05;;;25.27;27.48
42511;BME280;28141;51.120;17.114;2023-02-26T15:51:18;101870.72;;;25.22;27.58
42511;BME280;28141;51.120;17.114;2023-02-26T15:54:43;101858.76;;;25.22;27.57
42511;BME280;28141;51.120;17.114;2023-02-26T15:58:34;101860.91;;;25.13;27.54
42511;BME280;28141;51.120;17.114;2023-02-26T16:01:49;101866.02;;;25.09;27.29
42511;BME280;28141;51.120;17.114;2023-02-26T16:05:04;101877.13;;;25.03;27.72
42511;BME280;28141;51.120;17.114;2023-02-26T16:08:18;101880.78;;;24.97;27.86
42511;BME280;28141;51.120;17.114;2023-02-26T16:12:00;101893.35;;;24.93;27.77
42511;BME280;28141;51.120;17.114;2023-02-26T16:15:30;101892.90;;;24.83;27.62
42511;BME280;28141;51.120;17.114;2023-02-26T16:18:39;101898.65;;;24.81;27.78
42511;BME280;28141;51.120;17.114;2023-02-26T16:22:24;101910.80;;;24.80;27.94
42511;BME280;28141;51.120;17.114;2023-02-26T16:25:43;101906.12;;;24.74;27.72
42511;BME280;28141;51.120;17.114;2023-02-26T16:29:20;101917.16;;;24.67;28.22
42511;BME280;28141;51.120;17.114;2023-02-26T16:32:52;101925.04;;;24.57;28.13
42511;BME280;28141;51.120;17.114;2023-02-26T16:36:13;101919.73;;;24.62;28.05
42511;BME280;28141;51.120;17.114;2023-02-26T16:39:30;101924.42;;;24.62;28.28
42511;BME280;28141;51.120;17.114;2023-02-26T16:46:42;101946.97;;;24.46;28.23
42511;BME280;28141;51.120;17.114;2023-02-26T16:49:58;101952.50;;;24.46;28.37
42511;BME280;28141;51.120;17.114;2023-02-26T16:53:48;101966.78;;;24.43;28.30
42511;BME280;28141;51.120;17.114;2023-02-26T16:57:28;101961.05;;;24.44;28.79
42511;BME280;28141;51.120;17.114;2023-02-26T17:00:31;101971.89;;;24.46;28.22
42511;BME280;28141;51.120;17.114;2023-02-26T17:04:14;101974.25;;;24.42;28.27
42511;BME280;28141;51.120;17.114;2023-02-26T17:07:34;101974.65;;;24.39;28.52
42511;BME280;28141;51.120;17.114;2023-02-26T17:10:53;101989.34;;;24.33;28.35
42511;BME280;28141;51.120;17.114;2023-02-26T17:14:38;101987.18;;;24.28;28.38
42511;BME280;28141;51.120;17.114;2023-02-26T17:17:54;101991.25;;;24.32;28.41
42511;BME280;28141;51.120;17.114;2023-02-26T17:21:12;101990.35;;;24.25;28.46
42511;BME280;28141;51.120;17.114;2023-02-26T17:24:51;102002.04;;;24.21;28.49
42511;BME280;28141;51.120;17.114;2023-02-26T17:28:06;102003.49;;;24.17;28.35
42511;BME280;28141;51.120;17.114;2023-02-26T17:31:21;102001.38;;;24.19;28.17
42511;BME280;28141;51.120;17.114;2023-02-26T17:34:36;102005.60;;;24.15;28.63
42511;BME280;28141;51.120;17.114;2023-02-26T17:38:17;102011.98;;;24.09;28.58
42511;BME280;28141;51.120;17.114;2023-02-26T17:41:31;102018.97;;;24.05;28.75
42511;BME280;28141;51.120;17.114;2023-02-26T17:44:47;102006.86;;;24.12;28.69
42511;BME280;28141;51.120;17.114;2023-02-26T17:48:02;102022.22;;;24.15;28.78
42511;BME280;28141;51.120;17.114;2023-02-26T17:51:45;102028.81;;;24.14;28.57
42511;BME280;28141;51.120;17.114;2023-02-26T17:54:58;102032.02;;;24.11;28.46
42511;BME280;28141;51.120;17.114;2023-02-26T18:02:17;102038.12;;;23.99;28.61
42511;BME280;28141;51.120;17.114;2023-02-26T18:05:32;102040.88;;;23.99;28.51
42511;BME280;28141;51.120;17.114;2023-02-26T18:08:51;102046.86;;;24.03;28.58
42511;BME280;28141;51.120;17.114;2023-02-26T18:12:31;102055.88;;;24.12;28.62
42511;BME280;28141;51.120;17.114;2023-02-26T18:15:45;102055.22;;;24.10;28.54
42511;BME280;28141;51.120;17.114;2023-02-26T18:18:59;102052.59;;;24.01;28.59
42511;BME280;28141;51.120;17.114;2023-02-26T18:22:19;102062.20;;;24.06;28.83
42511;BME280;28141;51.120;17.114;2023-02-26T18:26:00;102065.99;;;23.98;28.56
42511;BME280;28141;51.120;17.114;2023-02-26T18:29:15;102066.85;;;23.98;28.74
42511;BME280;28141;51.120;17.114;2023-02-26T18:32:29;102063.23;;;23.98;28.79
42511;BME280;28141;51.120;17.114;2023-02-26T18:35:45;102065.80;;;23.99;28.65
42511;BME280;28141;51.120;17.114;2023-02-26T18:39:24;102060.00;;;23.94;28.59
42511;BME280;28141;51.120;17.114;2023-02-26T18:42:45;102072.39;;;23.98;28.52
42511;BME280;28141;51.120;17.114;2023-02-26T18:45:58;102081.48;;;23.92;28.63
42511;BME280;28141;51.120;17.114;2023-02-26T18:49:40;102085.31;;;23.91;28.51
42511;BME280;28141;51.120;17.114;2023-02-26T18:52:54;102087.84;;;23.86;28.41
42511;BME280;28141;51.120;17.114;2023-02-26T18:56:08;102097.85;;;23.87;28.59
42511;BME280;28141;51.120;17.114;2023-02-26T18:59:23;102102.58;;;23.93;28.49
42511;BME280;28141;51.120;17.114;2023-02-26T19:03:01;102115.71;;;23.85;28.56
42511;BME280;28141;51.120;17.114;2023-02-26T19:06:15;102117.23;;;23.87;28.53
42511;BME280;28141;51.120;17.114;2023-02-26T19:09:30;102116.17;;;23.88;28.58
42511;BME280;28141;51.120;17.114;2023-02-26T19:12:45;102122.76;;;23.87;28.60
42511;BME280;28141;51.120;17.114;2023-02-26T19:16:24;102132.13;;;23.86;28.54
42511;BME280;28141;51.120;17.114;2023-02-26T19:19:43;102134.89;;;23.86;28.62
42511;BME280;28141;51.120;17.114;2023-02-26T19:22:57;102136.09;;;23.77;28.67
42511;BME280;28141;51.120;17.114;2023-02-26T19:26:10;102146.54;;;23.82;28.59
42511;BME280;28141;51.120;17.114;2023-02-26T19:29:50;102139.91;;;23.76;28.54
42511;BME280;28141;51.120;17.114;2023-02-26T19:33:05;102150.71;;;23.71;28.71
42511;BME280;28141;51.120;17.114;2023-02-26T19:36:19;102150.98;;;23.76;28.77
42511;BME280;28141;51.120;17.114;2023-02-26T19:39:34;102152.41;;;23.72;28.44
42511;BME280;28141;51.120;17.114;2023-02-26T19:43:12;102163.45;;;23.65;28.59
42511;BME280;28141;51.120;17.114;2023-02-26T19:46:27;102164.30;;;23.66;28.58
42511;BME280;28141;51.120;17.114;2023-02-26T19:49:41;102163.24;;;23.67;28.53
42511;BME280;28141;51.120;17.114;2023-02-26T19:52:54;102170.41;;;23.61;28.57
42511;BME280;28141;51.120;17.114;2023-02-26T19:56:35;102181.48;;;23.61;28.61
42511;BME280;28141;51.120;17.114;2023-02-26T19:59:49;102184.52;;;23.67;28.54
42511;BME280;28141;51.120;17.114;2023-02-26T20:03:03;102193.59;;;23.60;28.66
42511;BME280;28141;51.120;17.114;2023-02-26T20:06:18;102189.11;;;23.59;28.65
42511;BME280;28141;51.120;17.114;2023-02-26T20:09:57;102195.77;;;23.65;28.56
42511;BME280;28141;51.120;17.114;2023-02-26T20:13:13;102202.75;;;23.61;28.50
42511;BME280;28141;51.120;17.114;2023-02-26T20:16:27;102205.12;;;23.64;28.55
42511;BME280;28141;51.120;17.114;2023-02-26T20:19:41;102208.09;;;23.62;28.38
42511;BME280;28141;51.120;17.114;2023-02-26T20:23:21;102217.63;;;23.60;28.55
42511;BME280;28141;51.120;17.114;2023-02-26T20:26:35;102211.72;;;23.63;28.57
42511;BME280;28141;51.120;17.114;2023-02-26T20:29:49;102217.25;;;23.63;28.36
42511;BME280;28141;51.120;17.114;2023-02-26T20:33:03;102221.35;;;23.67;28.67
42511;BME280;28141;51.120;17.114;2023-02-26T20:36:41;102231.74;;;23.65;28.45